sensor_id;sensor_type;location;lat;lon;timestamp;temperature;humidity
5192;DHT22;2615;44.524;11.284;2023-09-08T00:00:17;22.40;46.90
5192;DHT22;2615;44.524;11.284;2023-09-08T00:02:47;22.30;46.80
5192;DHT22;2615;44.524;11.284;2023-09-08T00:05:15;22.30;46.80
5192;DHT22;2615;44.524;11.284;2023-09-08T00:07:43;22.20;46.80
5192;DHT22;2615;44.524;11.284;2023-09-08T00:10:11;22.10;46.80
5192;DHT22;2615;44.524;11.284;2023-09-08T00:12:39;22.10;46.90
5192;DHT22;2615;44.524;11.284;2023-09-08T00:15:09;22.00;46.90
5192;DHT22;2615;44.524;11.284;2023-09-08T00:17:37;22.00;47.10
5192;DHT22;2615;44.524;11.284;2023-09-08T00:20:08;21.90;47.00
5192;DHT22;2615;44.524;11.284;2023-09-08T00:22:37;21.90;47.10
5192;DHT22;2615;44.524;11.284;2023-09-08T00:25:06;21.90;47.10
5192;DHT22;2615;44.524;11.284;2023-09-08T00:27:34;21.90;47.20
5192;DHT22;2615;44.524;11.284;2023-09-08T00:30:03;21.90;47.30
5192;DHT22;2615;44.524;11.284;2023-09-08T00:32:31;21.90;47.30
5192;DHT22;2615;44.524;11.284;2023-09-08T00:34:59;21.80;47.20
5192;DHT22;2615;44.524;11.284;2023-09-08T00:37:29;21.80;47.30
5192;DHT22;2615;44.524;11.284;2023-09-08T00:39:57;21.80;47.30
5192;DHT22;2615;44.524;11.284;2023-09-08T00:42:25;21.80;47.30
5192;DHT22;2615;44.524;11.284;2023-09-08T00:44:53;21.80;47.40
5192;DHT22;2615;44.524;11.284;2023-09-08T00:47:21;21.80;47.40
5192;DHT22;2615;44.524;11.284;2023-09-08T00:49:50;21.80;47.40
5192;DHT22;2615;44.524;11.284;2023-09-08T00:52:19;21.80;47.50
5192;DHT22;2615;44.524;11.284;2023-09-08T00:54:48;21.70;47.50
5192;DHT22;2615;44.524;11.284;2023-09-08T00:57:17;21.70;47.50
5192;DHT22;2615;44.524;11.284;2023-09-08T00:59:45;21.70;47.70
5192;DHT22;2615;44.524;11.284;2023-09-08T01:02:13;21.80;47.70
5192;DHT22;2615;44.524;11.284;2023-09-08T01:04:42;21.80;47.60
5192;DHT22;2615;44.524;11.284;2023-09-08T01:07:12;21.70;47.60
5192;DHT22;2615;44.524;11.284;2023-09-08T01:09:42;21.70;47.70
5192;DHT22;2615;44.524;11.284;2023-09-08T01:12:11;21.70;47.70
5192;DHT22;2615;44.524;11.284;2023-09-08T01:14:39;21.70;47.70
5192;DHT22;2615;44.524;11.284;2023-09-08T01:17:08;21.70;47.60
5192;DHT22;2615;44.524;11.284;2023-09-08T01:19:37;21.60;47.60
5192;DHT22;2615;44.524;11.284;2023-09-08T01:22:21;21.60;47.70
5192;DHT22;2615;44.524;11.284;2023-09-08T01:25:12;21.60;47.70
5192;DHT22;2615;44.524;11.284;2023-09-08T01:27:46;21.50;47.70
5192;DHT22;2615;44.524;11.284;2023-09-08T01:30:16;21.50;47.70
5192;DHT22;2615;44.524;11.284;2023-09-08T01:32:45;21.50;47.80
5192;DHT22;2615;44.524;11.284;2023-09-08T01:35:13;21.50;47.80
5192;DHT22;2615;44.524;11.284;2023-09-08T01:37:44;21.40;47.80
5192;DHT22;2615;44.524;11.284;2023-09-08T01:40:13;21.50;47.90
5192;DHT22;2615;44.524;11.284;2023-09-08T01:42:42;21.40;47.80
5192;DHT22;2615;44.524;11.284;2023-09-08T01:45:10;21.40;48.00
5192;DHT22;2615;44.524;11.284;2023-09-08T01:47:38;21.40;48.00
5192;DHT22;2615;44.524;11.284;2023-09-08T01:50:07;21.40;48.10
5192;DHT22;2615;44.524;11.284;2023-09-08T01:52:35;21.30;48.10
5192;DHT22;2615;44.524;11.284;2023-09-08T01:55:04;21.40;48.20
5192;DHT22;2615;44.524;11.284;2023-09-08T01:57:34;21.30;48.10
5192;DHT22;2615;44.524;11.284;2023-09-08T02:00:03;21.30;48.20
5192;DHT22;2615;44.524;11.284;2023-09-08T02:02:32;21.30;48.20
5192;DHT22;2615;44.524;11.284;2023-09-08T02:05:00;21.40;48.20
5192;DHT22;2615;44.524;11.284;2023-09-08T02:07:28;21.30;48.30
5192;DHT22;2615;44.524;11.284;2023-09-08T02:09:58;21.40;48.20
5192;DHT22;2615;44.524;11.284;2023-09-08T02:12:26;21.40;48.30
5192;DHT22;2615;44.524;11.284;2023-09-08T02:14:56;21.30;48.20
5192;DHT22;2615;44.524;11.284;2023-09-08T02:17:24;21.30;48.30
5192;DHT22;2615;44.524;11.284;2023-09-08T02:19:53;21.30;48.40
5192;DHT22;2615;44.524;11.284;2023-09-08T02:22:21;21.30;48.40
5192;DHT22;2615;44.524;11.284;2023-09-08T02:24:49;21.30;48.40
5192;DHT22;2615;44.524;11.284;2023-09-08T02:27:19;21.20;48.30
5192;DHT22;2615;44.524;11.284;2023-09-08T02:29:47;21.20;48.30
5192;DHT22;2615;44.524;11.284;2023-09-08T02:32:16;21.10;48.30
5192;DHT22;2615;44.524;11.284;2023-09-08T02:34:45;21.10;48.40
5192;DHT22;2615;44.524;11.284;2023-09-08T02:37:15;21.10;48.50
5192;DHT22;2615;44.524;11.284;2023-09-08T02:39:45;21.10;48.50
5192;DHT22;2615;44.524;11.284;2023-09-08T02:42:13;21.00;48.50
5192;DHT22;2615;44.524;11.284;2023-09-08T02:44:41;21.00;48.60
5192;DHT22;2615;44.524;11.284;2023-09-08T02:47:10;21.00;48.70
5192;DHT22;2615;44.524;11.284;2023-09-08T02:49:39;21.00;48.70
5192;DHT22;2615;44.524;11.284;2023-09-08T02:52:07;21.00;48.70
5192;DHT22;2615;44.524;11.284;2023-09-08T02:54:36;21.00;48.80
5192;DHT22;2615;44.524;11.284;2023-09-08T02:57:04;20.90;48.70
5192;DHT22;2615;44.524;11.284;2023-09-08T02:59:32;20.90;48.70
5192;DHT22;2615;44.524;11.284;2023-09-08T03:02:00;20.90;48.80
5192;DHT22;2615;44.524;11.284;2023-09-08T03:04:28;20.90;48.80
5192;DHT22;2615;44.524;11.284;2023-09-08T03:06:58;20.90;48.80
5192;DHT22;2615;44.524;11.284;2023-09-08T03:09:26;20.90;48.80
5192;DHT22;2615;44.524;11.284;2023-09-08T03:11:54;20.80;48.80
5192;DHT22;2615;44.524;11.284;2023-09-08T03:14:22;20.80;48.80
5192;DHT22;2615;44.524;11.284;2023-09-08T03:16:50;20.80;48.90
5192;DHT22;2615;44.524;11.284;2023-09-08T03:19:19;20.80;49.00
5192;DHT22;2615;44.524;11.284;2023-09-08T03:21:47;20.70;48.90
5192;DHT22;2615;44.524;11.284;2023-09-08T03:24:16;20.70;49.00
5192;DHT22;2615;44.524;11.284;2023-09-08T03:26:44;20.70;49.00
5192;DHT22;2615;44.524;11.284;2023-09-08T03:29:13;20.70;49.00
5192;DHT22;2615;44.524;11.284;2023-09-08T03:31:41;20.70;49.00
5192;DHT22;2615;44.524;11.284;2023-09-08T03:34:09;20.70;49.10
5192;DHT22;2615;44.524;11.284;2023-09-08T03:36:37;20.80;49.20
5192;DHT22;2615;44.524;11.284;2023-09-08T03:39:05;20.90;49.30
5192;DHT22;2615;44.524;11.284;2023-09-08T03:41:37;20.90;49.10
5192;DHT22;2615;44.524;11.284;2023-09-08T03:44:06;20.90;49.00
5192;DHT22;2615;44.524;11.284;2023-09-08T03:46:34;20.90;49.10
5192;DHT22;2615;44.524;11.284;2023-09-08T03:49:02;20.90;49.20
5192;DHT22;2615;44.524;11.284;2023-09-08T03:51:30;20.90;49.20
5192;DHT22;2615;44.524;11.284;2023-09-08T03:53:58;20.90;49.10
5192;DHT22;2615;44.524;11.284;2023-09-08T03:56:26;20.80;49.10
5192;DHT22;2615;44.524;11.284;2023-09-08T03:58:56;20.80;49.20
5192;DHT22;2615;44.524;11.284;2023-09-08T04:01:24;20.80;49.20
5192;DHT22;2615;44.524;11.284;2023-09-08T04:03:53;20.80;49.30
5192;DHT22;2615;44.524;11.284;2023-09-08T04:06:21;20.70;49.20
5192;DHT22;2615;44.524;11.284;2023-09-08T04:08:51;20.70;49.30
5192;DHT22;2615;44.524;11.284;2023-09-08T04:11:19;20.70;49.30
5192;DHT22;2615;44.524;11.284;2023-09-08T04:13:47;20.60;49.30
5192;DHT22;2615;44.524;11.284;2023-09-08T04:16:16;20.60;49.40
5192;DHT22;2615;44.524;11.284;2023-09-08T04:18:45;20.60;49.40
5192;DHT22;2615;44.524;11.284;2023-09-08T04:21:13;20.50;49.30
5192;DHT22;2615;44.524;11.284;2023-09-08T04:23:41;20.50;49.40
5192;DHT22;2615;44.524;11.284;2023-09-08T04:26:10;20.50;49.40
5192;DHT22;2615;44.524;11.284;2023-09-08T04:28:38;20.50;49.40
5192;DHT22;2615;44.524;11.284;2023-09-08T04:31:06;20.50;49.50
5192;DHT22;2615;44.524;11.284;2023-09-08T04:33:35;20.50;49.50
5192;DHT22;2615;44.524;11.284;2023-09-08T04:36:04;20.50;49.60
5192;DHT22;2615;44.524;11.284;2023-09-08T04:38:32;20.50;49.50
5192;DHT22;2615;44.524;11.284;2023-09-08T04:41:01;20.50;49.60
5192;DHT22;2615;44.524;11.284;2023-09-08T04:43:29;20.50;49.60
5192;DHT22;2615;44.524;11.284;2023-09-08T04:45:57;20.50;49.60
5192;DHT22;2615;44.524;11.284;2023-09-08T04:48:25;20.60;49.70
5192;DHT22;2615;44.524;11.284;2023-09-08T04:50:58;20.50;49.60
5192;DHT22;2615;44.524;11.284;2023-09-08T04:53:26;20.50;49.70
5192;DHT22;2615;44.524;11.284;2023-09-08T04:55:54;20.50;49.70
5192;DHT22;2615;44.524;11.284;2023-09-08T04:58:22;20.50;49.70
5192;DHT22;2615;44.524;11.284;2023-09-08T05:00:50;20.50;49.70
5192;DHT22;2615;44.524;11.284;2023-09-08T05:03:18;20.60;49.80
5192;DHT22;2615;44.524;11.284;2023-09-08T05:05:47;20.50;49.70
5192;DHT22;2615;44.524;11.284;2023-09-08T05:08:16;20.50;49.70
5192;DHT22;2615;44.524;11.284;2023-09-08T05:10:44;20.50;49.80
5192;DHT22;2615;44.524;11.284;2023-09-08T05:13:12;20.50;49.80
5192;DHT22;2615;44.524;11.284;2023-09-08T05:15:56;20.50;49.70
5192;DHT22;2615;44.524;11.284;2023-09-08T05:18:27;20.50;49.80
5192;DHT22;2615;44.524;11.284;2023-09-08T05:20:55;20.50;49.80
5192;DHT22;2615;44.524;11.284;2023-09-08T05:23:24;20.50;49.70
5192;DHT22;2615;44.524;11.284;2023-09-08T05:25:53;20.50;49.80
5192;DHT22;2615;44.524;11.284;2023-09-08T05:28:21;20.50;49.90
5192;DHT22;2615;44.524;11.284;2023-09-08T05:30:51;20.60;49.90
5192;DHT22;2615;44.524;11.284;2023-09-08T05:33:19;20.60;49.90
5192;DHT22;2615;44.524;11.284;2023-09-08T05:35:47;20.60;49.90
5192;DHT22;2615;44.524;11.284;2023-09-08T05:38:15;20.70;50.00
5192;DHT22;2615;44.524;11.284;2023-09-08T05:40:45;20.70;49.90
5192;DHT22;2615;44.524;11.284;2023-09-08T05:43:13;20.80;49.90
5192;DHT22;2615;44.524;11.284;2023-09-08T05:45:41;20.80;49.90
5192;DHT22;2615;44.524;11.284;2023-09-08T05:48:09;20.90;49.90
5192;DHT22;2615;44.524;11.284;2023-09-08T05:50:39;20.90;49.90
5192;DHT22;2615;44.524;11.284;2023-09-08T05:53:07;21.00;49.90
5192;DHT22;2615;44.524;11.284;2023-09-08T05:55:36;21.00;49.80
5192;DHT22;2615;44.524;11.284;2023-09-08T05:58:05;21.10;49.90
5192;DHT22;2615;44.524;11.284;2023-09-08T06:00:34;21.10;49.80
5192;DHT22;2615;44.524;11.284;2023-09-08T06:03:03;21.10;49.80
5192;DHT22;2615;44.524;11.284;2023-09-08T06:05:32;21.20;49.90
5192;DHT22;2615;44.524;11.284;2023-09-08T06:08:00;21.30;50.10
5192;DHT22;2615;44.524;11.284;2023-09-08T06:10:33;21.50;50.20
5192;DHT22;2615;44.524;11.284;2023-09-08T06:13:01;21.70;50.00
5192;DHT22;2615;44.524;11.284;2023-09-08T06:15:31;21.90;49.90
5192;DHT22;2615;44.524;11.284;2023-09-08T06:17:59;22.10;49.80
5192;DHT22;2615;44.524;11.284;2023-09-08T06:20:27;22.20;49.70
5192;DHT22;2615;44.524;11.284;2023-09-08T06:22:55;22.30;49.60
5192;DHT22;2615;44.524;11.284;2023-09-08T06:25:23;22.50;49.50
5192;DHT22;2615;44.524;11.284;2023-09-08T06:27:52;22.50;49.40
5192;DHT22;2615;44.524;11.284;2023-09-08T06:30:20;22.60;49.40
5192;DHT22;2615;44.524;11.284;2023-09-08T06:32:49;22.70;49.40
5192;DHT22;2615;44.524;11.284;2023-09-08T06:35:18;22.90;49.40
5192;DHT22;2615;44.524;11.284;2023-09-08T06:37:46;22.90;49.20
5192;DHT22;2615;44.524;11.284;2023-09-08T06:40:14;23.00;49.20
5192;DHT22;2615;44.524;11.284;2023-09-08T06:42:42;23.10;49.20
5192;DHT22;2615;44.524;11.284;2023-09-08T06:45:10;23.20;49.20
5192;DHT22;2615;44.524;11.284;2023-09-08T06:47:40;23.30;49.10
5192;DHT22;2615;44.524;11.284;2023-09-08T06:50:10;23.30;49.00
5192;DHT22;2615;44.524;11.284;2023-09-08T06:52:38;23.40;49.00
5192;DHT22;2615;44.524;11.284;2023-09-08T06:55:07;23.60;49.00
5192;DHT22;2615;44.524;11.284;2023-09-08T06:57:37;23.60;48.90
5192;DHT22;2615;44.524;11.284;2023-09-08T07:00:06;23.70;48.90
5192;DHT22;2615;44.524;11.284;2023-09-08T07:02:36;23.90;49.00
5192;DHT22;2615;44.524;11.284;2023-09-08T07:05:04;23.90;48.80
5192;DHT22;2615;44.524;11.284;2023-09-08T07:07:36;24.00;48.80
5192;DHT22;2615;44.524;11.284;2023-09-08T07:10:06;24.10;48.80
5192;DHT22;2615;44.524;11.284;2023-09-08T07:12:35;24.10;48.70
5192;DHT22;2615;44.524;11.284;2023-09-08T07:15:04;24.20;48.80
5192;DHT22;2615;44.524;11.284;2023-09-08T07:17:32;24.30;48.80
5192;DHT22;2615;44.524;11.284;2023-09-08T07:20:01;24.30;48.70
5192;DHT22;2615;44.524;11.284;2023-09-08T07:22:29;24.30;48.70
5192;DHT22;2615;44.524;11.284;2023-09-08T07:24:59;24.40;48.80
5192;DHT22;2615;44.524;11.284;2023-09-08T07:27:27;24.50;48.80
5192;DHT22;2615;44.524;11.284;2023-09-08T07:29:56;24.50;48.70
5192;DHT22;2615;44.524;11.284;2023-09-08T07:32:24;24.60;48.70
5192;DHT22;2615;44.524;11.284;2023-09-08T07:34:52;24.70;48.70
5192;DHT22;2615;44.524;11.284;2023-09-08T07:37:22;24.70;48.60
5192;DHT22;2615;44.524;11.284;2023-09-08T07:39:51;24.80;48.70
5192;DHT22;2615;44.524;11.284;2023-09-08T07:42:21;24.80;48.60
5192;DHT22;2615;44.524;11.284;2023-09-08T07:44:50;24.90;48.60
5192;DHT22;2615;44.524;11.284;2023-09-08T07:47:18;25.00;48.60
5192;DHT22;2615;44.524;11.284;2023-09-08T07:49:48;25.00;48.50
5192;DHT22;2615;44.524;11.284;2023-09-08T07:52:16;25.00;48.40
5192;DHT22;2615;44.524;11.284;2023-09-08T07:54:44;25.10;48.50
5192;DHT22;2615;44.524;11.284;2023-09-08T07:57:12;25.10;48.40
5192;DHT22;2615;44.524;11.284;2023-09-08T07:59:42;25.20;48.40
5192;DHT22;2615;44.524;11.284;2023-09-08T08:02:10;25.20;48.40
5192;DHT22;2615;44.524;11.284;2023-09-08T08:04:38;25.20;48.90
5192;DHT22;2615;44.524;11.284;2023-09-08T08:07:06;25.20;48.30
5192;DHT22;2615;44.524;11.284;2023-09-08T08:09:34;25.30;48.30
5192;DHT22;2615;44.524;11.284;2023-09-08T08:12:03;25.30;48.30
5192;DHT22;2615;44.524;11.284;2023-09-08T08:14:32;25.40;48.20
5192;DHT22;2615;44.524;11.284;2023-09-08T08:17:02;25.40;48.20
5192;DHT22;2615;44.524;11.284;2023-09-08T08:19:30;25.50;48.20
5192;DHT22;2615;44.524;11.284;2023-09-08T08:21:58;25.50;48.10
5192;DHT22;2615;44.524;11.284;2023-09-08T08:24:27;25.50;48.10
5192;DHT22;2615;44.524;11.284;2023-09-08T08:26:55;25.50;48.00
5192;DHT22;2615;44.524;11.284;2023-09-08T08:29:23;25.50;48.00
5192;DHT22;2615;44.524;11.284;2023-09-08T08:31:51;25.50;48.00
5192;DHT22;2615;44.524;11.284;2023-09-08T08:34:21;25.50;48.00
5192;DHT22;2615;44.524;11.284;2023-09-08T08:36:49;25.50;48.00
5192;DHT22;2615;44.524;11.284;2023-09-08T08:39:17;25.50;48.00
5192;DHT22;2615;44.524;11.284;2023-09-08T08:41:45;25.50;48.00
5192;DHT22;2615;44.524;11.284;2023-09-08T08:44:14;25.50;48.00
5192;DHT22;2615;44.524;11.284;2023-09-08T08:46:43;25.60;48.10
5192;DHT22;2615;44.524;11.284;2023-09-08T08:49:14;25.60;48.70
5192;DHT22;2615;44.524;11.284;2023-09-08T08:51:44;25.60;48.00
5192;DHT22;2615;44.524;11.284;2023-09-08T08:54:13;25.60;48.00
5192;DHT22;2615;44.524;11.284;2023-09-08T08:56:43;25.70;48.10
5192;DHT22;2615;44.524;11.284;2023-09-08T08:59:12;25.70;48.00
5192;DHT22;2615;44.524;11.284;2023-09-08T09:01:42;25.70;48.00
5192;DHT22;2615;44.524;11.284;2023-09-08T09:04:10;25.70;48.00
5192;DHT22;2615;44.524;11.284;2023-09-08T09:06:39;25.80;48.00
5192;DHT22;2615;44.524;11.284;2023-09-08T09:09:09;25.90;48.10
5192;DHT22;2615;44.524;11.284;2023-09-08T09:11:37;25.90;48.00
5192;DHT22;2615;44.524;11.284;2023-09-08T09:14:06;26.00;48.00
5192;DHT22;2615;44.524;11.284;2023-09-08T09:16:39;26.00;47.90
5192;DHT22;2615;44.524;11.284;2023-09-08T09:19:08;26.10;47.90
5192;DHT22;2615;44.524;11.284;2023-09-08T09:21:43;26.10;47.80
5192;DHT22;2615;44.524;11.284;2023-09-08T09:24:18;26.20;47.80
5192;DHT22;2615;44.524;11.284;2023-09-08T09:26:56;26.30;47.70
5192;DHT22;2615;44.524;11.284;2023-09-08T09:29:24;26.40;47.60
5192;DHT22;2615;44.524;11.284;2023-09-08T09:31:53;26.50;47.50
5192;DHT22;2615;44.524;11.284;2023-09-08T09:34:22;26.60;47.40
5192;DHT22;2615;44.524;11.284;2023-09-08T09:36:51;26.70;47.40
5192;DHT22;2615;44.524;11.284;2023-09-08T09:39:22;26.80;47.20
5192;DHT22;2615;44.524;11.284;2023-09-08T09:41:53;27.00;47.10
5192;DHT22;2615;44.524;11.284;2023-09-08T09:44:23;27.20;46.90
5192;DHT22;2615;44.524;11.284;2023-09-08T09:46:52;27.30;46.80
5192;DHT22;2615;44.524;11.284;2023-09-08T09:49:20;27.50;46.70
5192;DHT22;2615;44.524;11.284;2023-09-08T09:51:53;27.70;47.10
5192;DHT22;2615;44.524;11.284;2023-09-08T09:54:22;28.00;46.30
5192;DHT22;2615;44.524;11.284;2023-09-08T09:56:52;28.30;46.10
5192;DHT22;2615;44.524;11.284;2023-09-08T09:59:21;28.60;45.80
5192;DHT22;2615;44.524;11.284;2023-09-08T10:01:50;28.90;45.50
5192;DHT22;2615;44.524;11.284;2023-09-08T10:04:18;29.20;45.20
5192;DHT22;2615;44.524;11.284;2023-09-08T10:06:47;29.50;45.00
5192;DHT22;2615;44.524;11.284;2023-09-08T10:09:15;29.70;44.80
5192;DHT22;2615;44.524;11.284;2023-09-08T10:11:49;30.00;44.50
5192;DHT22;2615;44.524;11.284;2023-09-08T10:14:18;30.30;44.20
5192;DHT22;2615;44.524;11.284;2023-09-08T10:16:47;30.60;43.40
5192;DHT22;2615;44.524;11.284;2023-09-08T10:19:20;30.90;43.60
5192;DHT22;2615;44.524;11.284;2023-09-08T10:21:51;31.30;43.30
5192;DHT22;2615;44.524;11.284;2023-09-08T10:24:23;31.60;42.90
5192;DHT22;2615;44.524;11.284;2023-09-08T10:26:58;31.90;42.50
5192;DHT22;2615;44.524;11.284;2023-09-08T10:29:30;32.30;42.20
5192;DHT22;2615;44.524;11.284;2023-09-08T10:31:58;32.60;41.90
5192;DHT22;2615;44.524;11.284;2023-09-08T10:34:27;32.90;41.50
5192;DHT22;2615;44.524;11.284;2023-09-08T10:36:56;33.20;41.20
5192;DHT22;2615;44.524;11.284;2023-09-08T10:39:29;33.50;40.90
5192;DHT22;2615;44.524;11.284;2023-09-08T10:42:25;33.70;40.50
5192;DHT22;2615;44.524;11.284;2023-09-08T10:44:57;34.00;40.20
5192;DHT22;2615;44.524;11.284;2023-09-08T10:47:30;34.40;40.10
5192;DHT22;2615;44.524;11.284;2023-09-08T10:49:58;34.70;39.80
5192;DHT22;2615;44.524;11.284;2023-09-08T10:52:27;35.00;39.50
5192;DHT22;2615;44.524;11.284;2023-09-08T10:54:56;35.20;39.10
5192;DHT22;2615;44.524;11.284;2023-09-08T10:57:25;35.50;38.90
5192;DHT22;2615;44.524;11.284;2023-09-08T10:59:54;35.80;38.50
5192;DHT22;2615;44.524;11.284;2023-09-08T11:02:33;36.10;38.10
5192;DHT22;2615;44.524;11.284;2023-09-08T11:05:02;36.40;37.80
5192;DHT22;2615;44.524;11.284;2023-09-08T11:07:31;36.70;37.60
5192;DHT22;2615;44.524;11.284;2023-09-08T11:10:00;37.00;37.30
5192;DHT22;2615;44.524;11.284;2023-09-08T11:15:01;37.70;35.90
5192;DHT22;2615;44.524;11.284;2023-09-08T11:17:32;38.10;36.20
5192;DHT22;2615;44.524;11.284;2023-09-08T11:20:02;38.30;35.80
5192;DHT22;2615;44.524;11.284;2023-09-08T11:22:36;38.60;35.40
5192;DHT22;2615;44.524;11.284;2023-09-08T11:25:07;38.70;35.10
5192;DHT22;2615;44.524;11.284;2023-09-08T11:27:39;39.00;35.00
5192;DHT22;2615;44.524;11.284;2023-09-08T11:30:08;39.20;34.70
5192;DHT22;2615;44.524;11.284;2023-09-08T11:32:36;39.40;34.50
5192;DHT22;2615;44.524;11.284;2023-09-08T11:35:05;39.60;34.20
5192;DHT22;2615;44.524;11.284;2023-09-08T11:37:36;39.80;33.80
5192;DHT22;2615;44.524;11.284;2023-09-08T11:40:05;40.00;33.50
5192;DHT22;2615;44.524;11.284;2023-09-08T11:42:39;40.20;33.30
5192;DHT22;2615;44.524;11.284;2023-09-08T11:45:11;40.40;33.00
5192;DHT22;2615;44.524;11.284;2023-09-08T11:47:41;40.70;32.80
5192;DHT22;2615;44.524;11.284;2023-09-08T11:50:11;40.90;32.40
5192;DHT22;2615;44.524;11.284;2023-09-08T11:52:44;41.10;32.20
5192;DHT22;2615;44.524;11.284;2023-09-08T11:55:13;41.40;31.90
5192;DHT22;2615;44.524;11.284;2023-09-08T11:57:45;41.60;31.70
5192;DHT22;2615;44.524;11.284;2023-09-08T12:00:16;41.80;31.30
5192;DHT22;2615;44.524;11.284;2023-09-08T12:02:45;41.90;31.10
5192;DHT22;2615;44.524;11.284;2023-09-08T12:05:19;42.10;31.50
5192;DHT22;2615;44.524;11.284;2023-09-08T12:07:49;42.20;30.60
5192;DHT22;2615;44.524;11.284;2023-09-08T12:10:18;42.10;30.40
5192;DHT22;2615;44.524;11.284;2023-09-08T12:12:48;41.90;30.40
5192;DHT22;2615;44.524;11.284;2023-09-08T12:15:29;41.90;30.50
5192;DHT22;2615;44.524;11.284;2023-09-08T12:17:59;41.90;30.30
5192;DHT22;2615;44.524;11.284;2023-09-08T12:20:28;41.90;30.40
5192;DHT22;2615;44.524;11.284;2023-09-08T12:22:58;41.80;30.30
5192;DHT22;2615;44.524;11.284;2023-09-08T12:25:28;41.60;30.20
5192;DHT22;2615;44.524;11.284;2023-09-08T12:28:00;41.60;30.30
5192;DHT22;2615;44.524;11.284;2023-09-08T12:30:28;41.50;30.10
5192;DHT22;2615;44.524;11.284;2023-09-08T12:33:01;41.30;30.20
5192;DHT22;2615;44.524;11.284;2023-09-08T12:35:30;40.80;30.30
5192;DHT22;2615;44.524;11.284;2023-09-08T12:38:00;40.20;30.60
5192;DHT22;2615;44.524;11.284;2023-09-08T12:40:30;39.60;30.90
5192;DHT22;2615;44.524;11.284;2023-09-08T12:43:00;39.00;31.20
5192;DHT22;2615;44.524;11.284;2023-09-08T12:45:43;38.40;31.50
5192;DHT22;2615;44.524;11.284;2023-09-08T12:48:13;37.90;31.90
5192;DHT22;2615;44.524;11.284;2023-09-08T12:50:41;37.40;32.10
5192;DHT22;2615;44.524;11.284;2023-09-08T12:53:09;37.00;32.40
5192;DHT22;2615;44.524;11.284;2023-09-08T12:55:37;36.60;32.50
5192;DHT22;2615;44.524;11.284;2023-09-08T12:58:07;36.30;32.80
5192;DHT22;2615;44.524;11.284;2023-09-08T13:00:35;36.00;32.90
5192;DHT22;2615;44.524;11.284;2023-09-08T13:03:03;35.70;33.10
5192;DHT22;2615;44.524;11.284;2023-09-08T13:05:32;35.40;33.30
5192;DHT22;2615;44.524;11.284;2023-09-08T13:08:00;35.30;33.40
5192;DHT22;2615;44.524;11.284;2023-09-08T13:10:28;35.10;33.40
5192;DHT22;2615;44.524;11.284;2023-09-08T13:12:56;34.90;33.60
5192;DHT22;2615;44.524;11.284;2023-09-08T13:15:26;34.60;33.70
5192;DHT22;2615;44.524;11.284;2023-09-08T13:17:55;34.30;33.80
5192;DHT22;2615;44.524;11.284;2023-09-08T13:20:23;34.10;34.00
5192;DHT22;2615;44.524;11.284;2023-09-08T13:22:51;33.80;34.20
5192;DHT22;2615;44.524;11.284;2023-09-08T13:25:19;33.70;34.20
5192;DHT22;2615;44.524;11.284;2023-09-08T13:27:47;33.50;34.30
5192;DHT22;2615;44.524;11.284;2023-09-08T13:30:16;33.30;34.40
5192;DHT22;2615;44.524;11.284;2023-09-08T13:32:47;33.20;34.60
5192;DHT22;2615;44.524;11.284;2023-09-08T13:35:15;33.00;34.60
5192;DHT22;2615;44.524;11.284;2023-09-08T13:37:43;32.90;34.70
5192;DHT22;2615;44.524;11.284;2023-09-08T13:40:11;32.80;34.80
5192;DHT22;2615;44.524;11.284;2023-09-08T13:42:41;32.80;34.90
5192;DHT22;2615;44.524;11.284;2023-09-08T13:45:09;32.70;35.00
5192;DHT22;2615;44.524;11.284;2023-09-08T13:47:38;32.60;35.10
5192;DHT22;2615;44.524;11.284;2023-09-08T13:50:09;32.50;35.10
5192;DHT22;2615;44.524;11.284;2023-09-08T13:52:39;32.40;35.10
5192;DHT22;2615;44.524;11.284;2023-09-08T13:55:10;32.30;35.30
5192;DHT22;2615;44.524;11.284;2023-09-08T13:57:58;32.10;35.40
5192;DHT22;2615;44.524;11.284;2023-09-08T14:00:28;32.00;35.60
5192;DHT22;2615;44.524;11.284;2023-09-08T14:02:58;31.80;35.60
5192;DHT22;2615;44.524;11.284;2023-09-08T14:05:33;31.80;35.70
5192;DHT22;2615;44.524;11.284;2023-09-08T14:08:04;31.70;35.70
5192;DHT22;2615;44.524;11.284;2023-09-08T14:10:44;31.70;35.80
5192;DHT22;2615;44.524;11.284;2023-09-08T14:13:15;31.60;35.80
5192;DHT22;2615;44.524;11.284;2023-09-08T14:15:43;31.50;35.70
5192;DHT22;2615;44.524;11.284;2023-09-08T14:18:11;31.40;35.80
5192;DHT22;2615;44.524;11.284;2023-09-08T14:20:42;31.40;35.80
5192;DHT22;2615;44.524;11.284;2023-09-08T14:23:10;31.40;35.80
5192;DHT22;2615;44.524;11.284;2023-09-08T14:25:39;31.30;35.80
5192;DHT22;2615;44.524;11.284;2023-09-08T14:28:07;31.30;35.80
5192;DHT22;2615;44.524;11.284;2023-09-08T14:30:35;31.40;35.90
5192;DHT22;2615;44.524;11.284;2023-09-08T14:33:03;31.40;35.90
5192;DHT22;2615;44.524;11.284;2023-09-08T14:35:32;31.40;36.60
5192;DHT22;2615;44.524;11.284;2023-09-08T14:38:02;31.40;36.00
5192;DHT22;2615;44.524;11.284;2023-09-08T14:40:30;31.40;36.00
5192;DHT22;2615;44.524;11.284;2023-09-08T14:42:58;31.30;36.00
5192;DHT22;2615;44.524;11.284;2023-09-08T14:45:26;31.30;35.90
5192;DHT22;2615;44.524;11.284;2023-09-08T14:47:54;31.40;36.00
5192;DHT22;2615;44.524;11.284;2023-09-08T14:50:27;31.40;35.90
5192;DHT22;2615;44.524;11.284;2023-09-08T14:52:55;31.50;35.90
5192;DHT22;2615;44.524;11.284;2023-09-08T14:55:25;31.50;35.80
5192;DHT22;2615;44.524;11.284;2023-09-08T14:57:53;31.50;35.80
5192;DHT22;2615;44.524;11.284;2023-09-08T15:00:21;31.50;35.80
5192;DHT22;2615;44.524;11.284;2023-09-08T15:02:50;31.40;35.80
5192;DHT22;2615;44.524;11.284;2023-09-08T15:05:18;31.40;35.80
5192;DHT22;2615;44.524;11.284;2023-09-08T15:07:46;31.40;35.90
5192;DHT22;2615;44.524;11.284;2023-09-08T15:10:14;31.50;35.90
5192;DHT22;2615;44.524;11.284;2023-09-08T15:12:45;31.60;35.90
5192;DHT22;2615;44.524;11.284;2023-09-08T15:15:13;31.80;36.00
5192;DHT22;2615;44.524;11.284;2023-09-08T15:17:42;31.90;35.80
5192;DHT22;2615;44.524;11.284;2023-09-08T15:20:11;32.00;35.70
5192;DHT22;2615;44.524;11.284;2023-09-08T15:22:40;32.00;35.70
5192;DHT22;2615;44.524;11.284;2023-09-08T15:25:09;32.00;35.80
5192;DHT22;2615;44.524;11.284;2023-09-08T15:27:37;31.90;35.80
5192;DHT22;2615;44.524;11.284;2023-09-08T15:30:08;31.80;35.70
5192;DHT22;2615;44.524;11.284;2023-09-08T15:32:38;31.80;35.70
5192;DHT22;2615;44.524;11.284;2023-09-08T15:35:07;31.80;35.70
5192;DHT22;2615;44.524;11.284;2023-09-08T15:37:36;31.80;35.80
5192;DHT22;2615;44.524;11.284;2023-09-08T15:40:05;31.80;35.70
5192;DHT22;2615;44.524;11.284;2023-09-08T15:42:40;32.00;35.80
5192;DHT22;2615;44.524;11.284;2023-09-08T15:45:11;32.30;35.90
5192;DHT22;2615;44.524;11.284;2023-09-08T15:47:39;32.50;35.70
5192;DHT22;2615;44.524;11.284;2023-09-08T15:50:08;32.80;35.70
5192;DHT22;2615;44.524;11.284;2023-09-08T15:52:37;32.90;35.50
5192;DHT22;2615;44.524;11.284;2023-09-08T15:55:05;33.00;35.20
5192;DHT22;2615;44.524;11.284;2023-09-08T15:57:34;32.90;35.10
5192;DHT22;2615;44.524;11.284;2023-09-08T16:00:03;32.90;35.10